createdAt,value
2019-05-15T00:01:22.757Z,4.70
2019-05-15T00:03:53.338Z,6.17
2019-05-15T00:06:23.976Z,5.00
2019-05-15T00:08:54.661Z,5.20
2019-05-15T00:11:25.423Z,4.60
2019-05-15T00:13:55.987Z,5.30
2019-05-15T00:16:28.833Z,4.87
2019-05-15T00:18:59.248Z,4.70
2019-05-15T00:21:29.947Z,4.80
2019-05-15T00:24:00.493Z,4.53
2019-05-15T00:26:31.057Z,5.00
2019-05-15T00:29:12.015Z,4.40
2019-05-15T00:31:33.844Z,4.40
2019-05-15T00:34:04.835Z,4.50
2019-05-15T00:36:35.367Z,4.10
2019-05-15T00:39:08.442Z,4.50
2019-05-15T00:41:50.895Z,3.87
2019-05-15T00:44:12.006Z,4.17
2019-05-15T00:46:42.729Z,3.63
2019-05-15T00:49:13.363Z,3.53
2019-05-15T00:51:44.388Z,4.17
2019-05-15T00:54:14.958Z,4.20
2019-05-15T00:56:45.609Z,4.27
2019-05-15T00:59:24.108Z,3.97
2019-05-15T01:01:48.837Z,4.23
2019-05-15T01:04:19.677Z,4.23
2019-05-15T01:06:52.675Z,3.80
2019-05-15T01:09:22.756Z,5.07
2019-05-15T01:11:53.461Z,4.47
2019-05-15T01:14:23.928Z,4.57
2019-05-15T01:16:54.511Z,5.00
2019-05-15T01:19:25.132Z,4.97
2019-05-15T01:21:55.943Z,4.90
2019-05-15T01:24:28.318Z,4.47
2019-05-15T01:26:59.096Z,4.70
2019-05-15T01:29:41.111Z,3.93
2019-05-15T01:32:02.286Z,4.50
2019-05-15T01:34:32.839Z,4.50
2019-05-15T01:37:03.408Z,4.50
2019-05-15T01:39:34.058Z,4.27
2019-05-15T01:42:04.707Z,3.90
2019-05-15T01:44:35.337Z,4.40
2019-05-15T01:47:08.304Z,4.47
2019-05-15T01:49:38.496Z,4.00
2019-05-15T01:52:09.171Z,4.27
2019-05-15T01:54:39.777Z,4.23
2019-05-15T01:57:10.294Z,4.27
2019-05-15T01:59:53.940Z,4.57
2019-05-15T02:02:13.608Z,4.13
2019-05-15T02:04:44.316Z,4.23
2019-05-15T02:07:14.944Z,4.33
2019-05-15T02:09:45.646Z,4.70
2019-05-15T02:12:18.985Z,4.30
2019-05-15T02:14:48.908Z,4.37
2019-05-15T02:17:19.535Z,5.00
2019-05-15T02:19:50.246Z,4.73
2019-05-15T02:22:20.853Z,5.20
2019-05-15T02:24:51.352Z,4.67
2019-05-15T02:27:21.842Z,5.40
2019-05-15T02:29:52.411Z,5.10
2019-05-15T02:32:23.079Z,5.57
2019-05-15T02:34:53.793Z,5.57
2019-05-15T02:37:24.498Z,5.13
2019-05-15T02:39:55.176Z,5.37
2019-05-15T02:42:28.723Z,5.43
2019-05-15T02:44:58.687Z,5.80
2019-05-15T02:47:29.536Z,5.80
2019-05-15T02:50:00.194Z,5.27
2019-05-15T02:52:30.779Z,5.43
2019-05-15T02:55:01.546Z,5.27
2019-05-15T02:57:32.176Z,5.60
2019-05-15T03:00:02.726Z,5.57
2019-05-15T03:02:33.389Z,6.40
2019-05-15T03:05:04.605Z,5.73
2019-05-15T03:07:35.282Z,6.07
2019-05-15T03:10:09.161Z,6.20
2019-05-15T03:12:40.819Z,6.43
2019-05-15T03:15:12.098Z,5.60
2019-05-15T03:17:42.705Z,5.97
2019-05-15T03:20:13.758Z,6.97
2019-05-15T03:22:44.637Z,6.00
2019-05-15T03:25:18.961Z,6.00
2019-05-15T03:27:49.981Z,6.83
2019-05-15T03:30:22.103Z,7.20
2019-05-15T03:33:00.801Z,7.17
2019-05-15T03:35:25.345Z,7.70
2019-05-15T03:37:55.854Z,6.93
2019-05-15T03:40:29.550Z,6.60
2019-05-15T03:42:59.467Z,6.93
2019-05-15T03:45:30.236Z,6.97
2019-05-15T03:48:00.838Z,7.13
2019-05-15T03:50:31.437Z,6.93
2019-05-15T03:53:02.048Z,6.60
2019-05-15T03:55:32.847Z,6.90
2019-05-15T03:58:03.479Z,7.43
2019-05-15T04:00:34.213Z,8.13
2019-05-15T04:03:05.037Z,7.77
2019-05-15T04:05:38.658Z,8.50
2019-05-15T04:08:10.990Z,7.87
2019-05-15T04:10:40.794Z,9.07
2019-05-15T04:13:11.499Z,9.67
2019-05-15T04:15:42.183Z,9.23
2019-05-15T04:18:12.842Z,9.87
2019-05-15T04:20:43.466Z,9.43
2019-05-15T04:23:19.059Z,10.33
2019-05-15T04:25:53.452Z,9.23
2019-05-15T04:28:24.221Z,9.87
2019-05-15T04:30:54.951Z,9.23
2019-05-15T04:33:28.982Z,9.63
2019-05-15T04:35:58.932Z,9.90
2019-05-15T04:38:29.897Z,10.10
2019-05-15T04:41:01.152Z,10.40
2019-05-15T04:43:39.601Z,11.00
2019-05-15T04:46:04.240Z,10.60
2019-05-15T04:48:35.576Z,11.37
2019-05-15T04:51:09.464Z,11.97
2019-05-15T04:53:39.600Z,11.30
2019-05-15T04:56:11.008Z,11.10
2019-05-15T04:58:42.174Z,11.30
2019-05-15T05:01:13.298Z,11.40
2019-05-15T05:03:44.728Z,11.23
2019-05-15T05:06:18.767Z,12.40
2019-05-15T05:08:50.828Z,11.50
2019-05-15T05:11:24.043Z,12.37
2019-05-15T05:13:54.717Z,11.20
2019-05-15T05:16:25.866Z,12.77
2019-05-15T05:18:59.241Z,12.90
2019-05-15T05:21:28.986Z,13.77
2019-05-15T05:23:59.681Z,12.57
2019-05-15T05:26:30.317Z,12.57
2019-05-15T05:29:01.510Z,11.87
2019-05-15T05:31:32.467Z,11.90
2019-05-15T05:34:03.689Z,12.60
2019-05-15T05:36:35.273Z,12.80
2019-05-15T05:39:09.586Z,12.83
2019-05-15T05:41:41.088Z,11.87
2019-05-15T05:44:12.179Z,13.43
2019-05-15T05:46:43.364Z,12.43
2019-05-15T05:49:14.580Z,11.60
2019-05-15T05:51:48.116Z,10.17
2019-05-15T05:54:18.867Z,8.97
2019-05-15T05:56:50.146Z,8.10
2019-05-15T05:59:21.126Z,8.20
2019-05-15T06:01:52.407Z,7.23
2019-05-15T06:04:23.257Z,7.77
2019-05-15T06:07:06.033Z,7.97
2019-05-15T06:09:27.799Z,8.07
2019-05-15T06:11:59.013Z,8.87
2019-05-15T06:14:30.234Z,8.63
2019-05-15T06:17:02.172Z,8.43
2019-05-15T06:19:33.233Z,8.30
2019-05-15T06:22:04.523Z,8.83
2019-05-15T06:24:37.802Z,8.53
2019-05-15T06:27:08.336Z,8.60
2019-05-15T06:29:39.427Z,8.40
2019-05-15T06:32:29.798Z,8.17
2019-05-15T06:35:00.472Z,9.23
2019-05-15T06:37:31.528Z,9.67
2019-05-15T06:40:02.226Z,9.47
2019-05-15T06:42:33.635Z,8.60
2019-05-15T06:45:04.721Z,8.30
2019-05-15T06:47:35.723Z,9.37
2019-05-15T06:50:08.646Z,9.17
2019-05-15T06:52:39.634Z,9.43
2019-05-15T06:55:11.047Z,9.40
2019-05-15T06:57:41.869Z,8.33
2019-05-15T07:00:12.689Z,8.50
2019-05-15T07:02:43.446Z,8.60
2019-05-15T07:05:14.638Z,9.23
2019-05-15T07:07:48.705Z,8.67
2019-05-15T07:10:19.436Z,8.00
2019-05-15T07:12:51.491Z,8.60
2019-05-15T07:15:22.552Z,9.30
2019-05-15T07:20:38.872Z,9.77
2019-05-15T07:23:09.315Z,9.90
2019-05-15T07:25:40.543Z,10.17
2019-05-15T07:28:11.189Z,9.37
2019-05-15T07:30:41.922Z,9.43
2019-05-15T07:33:12.574Z,11.73
2019-05-15T07:35:43.247Z,12.80
2019-05-15T07:38:13.909Z,13.43
2019-05-15T07:40:44.662Z,14.20
2019-05-15T07:43:15.266Z,15.87
2019-05-15T07:45:52.428Z,14.70
2019-05-15T07:48:19.036Z,15.40
2019-05-15T07:50:50.083Z,16.53
2019-05-15T07:53:20.687Z,15.93
2019-05-15T07:55:51.554Z,15.37
2019-05-15T07:58:22.261Z,16.20
2019-05-15T08:00:53.106Z,14.80
2019-05-15T08:03:23.762Z,14.50
2019-05-15T08:05:59.276Z,15.37
2019-05-15T08:08:28.975Z,16.20
2019-05-15T08:10:59.127Z,15.63
2019-05-15T08:13:29.747Z,14.77
2019-05-15T08:16:00.465Z,14.50
2019-05-15T08:18:31.180Z,14.53
2019-05-15T08:21:01.746Z,14.37
2019-05-15T08:23:32.570Z,13.97
2019-05-15T08:26:03.108Z,12.83
2019-05-15T08:28:33.829Z,12.87
2019-05-15T08:31:06.651Z,14.13
2019-05-15T08:33:38.853Z,13.47
2019-05-15T08:36:09.508Z,13.87
2019-05-15T08:38:40.207Z,13.47
2019-05-15T08:41:11.702Z,11.53
2019-05-15T08:43:42.547Z,11.23
2019-05-15T08:46:13.418Z,12.07
2019-05-15T08:48:44.067Z,12.07
2019-05-15T08:51:14.867Z,12.10
2019-05-15T08:53:45.532Z,12.50
2019-05-15T08:56:19.147Z,14.77
2019-05-15T08:58:48.773Z,15.37
2019-05-15T09:01:19.637Z,16.63
2019-05-15T09:03:50.360Z,18.23
2019-05-15T09:06:23.091Z,18.73
2019-05-15T09:08:53.851Z,18.10
2019-05-15T09:11:24.380Z,19.90
2019-05-15T09:13:54.941Z,19.87
2019-05-15T09:16:27.943Z,19.23
2019-05-15T09:18:59.143Z,19.73
2019-05-15T09:21:30.080Z,21.37
2019-05-15T09:24:00.748Z,21.03
2019-05-15T09:26:31.596Z,22.47
2019-05-15T09:29:02.418Z,21.67
2019-05-15T09:31:33.200Z,22.93
2019-05-15T09:34:04.080Z,22.03
2019-05-15T09:36:34.752Z,21.43
2019-05-15T09:39:08.709Z,22.70
2019-05-15T09:41:39.667Z,22.63
2019-05-15T09:44:10.285Z,23.80
2019-05-15T09:46:40.950Z,24.43
2019-05-15T09:49:11.520Z,24.87
2019-05-15T09:51:42.143Z,23.63
2019-05-15T09:54:12.843Z,23.90
2019-05-15T09:56:43.612Z,21.47
2019-05-15T09:59:14.430Z,20.97
2019-05-15T10:01:45.204Z,20.47
2019-05-15T10:04:15.863Z,20.93
2019-05-15T10:06:48.498Z,20.93
2019-05-15T10:09:19.115Z,19.67
2019-05-15T10:11:49.875Z,19.43
2019-05-15T10:14:20.533Z,19.83
2019-05-15T10:16:51.849Z,20.63
2019-05-15T10:19:22.462Z,21.50
2019-05-15T10:21:53.479Z,19.83
2019-05-15T10:24:24.174Z,18.37
2019-05-15T10:26:54.771Z,17.73
2019-05-15T10:29:25.303Z,17.97
2019-05-15T10:31:55.947Z,18.23
2019-05-15T10:34:28.757Z,18.40
2019-05-15T10:36:59.168Z,19.43
2019-05-15T10:39:29.977Z,17.50
2019-05-15T10:42:00.615Z,18.27
2019-05-15T10:44:31.460Z,19.03
2019-05-15T10:47:02.193Z,19.00
2019-05-15T10:49:32.946Z,19.33
2019-05-15T10:52:03.653Z,16.67
2019-05-15T10:54:34.852Z,18.00
2019-05-15T10:57:08.514Z,19.33
2019-05-15T10:59:38.371Z,18.83
2019-05-15T11:02:09.315Z,19.40
2019-05-15T11:04:40.113Z,19.63
2019-05-15T11:07:11.205Z,21.50
2019-05-15T11:09:42.336Z,20.37
2019-05-15T11:12:13.265Z,19.87
2019-05-15T11:14:43.926Z,21.53
2019-05-15T11:17:14.475Z,21.87
2019-05-15T11:19:45.256Z,22.90
2019-05-15T11:22:18.774Z,23.30
2019-05-15T11:24:52.832Z,24.37
2019-05-15T11:27:21.566Z,24.13
2019-05-15T11:29:52.345Z,24.00
2019-05-15T11:32:23.660Z,26.23
2019-05-15T11:34:54.617Z,26.57
2019-05-15T11:37:28.131Z,25.63
2019-05-15T11:39:58.975Z,25.77
2019-05-15T11:42:30.263Z,25.37
2019-05-15T11:45:01.441Z,25.63
2019-05-15T11:47:32.802Z,27.33
2019-05-15T11:50:04.304Z,24.97
2019-05-15T11:52:37.379Z,26.37
2019-05-15T11:55:09.287Z,27.87
2019-05-15T11:57:46.782Z,26.93
2019-05-15T12:00:17.745Z,29.53
2019-05-15T12:02:47.650Z,30.00
2019-05-15T12:05:19.206Z,28.10
2019-05-15T12:07:50.374Z,28.67
2019-05-15T12:10:21.470Z,28.73
2019-05-15T12:12:52.740Z,28.27
2019-05-15T12:15:23.810Z,29.23
2019-05-15T12:17:54.988Z,28.13
2019-05-15T12:20:28.337Z,28.17
2019-05-15T12:22:59.434Z,26.73
2019-05-15T12:25:31.952Z,25.53
2019-05-15T12:28:03.022Z,26.43
2019-05-15T12:30:33.708Z,27.00
2019-05-15T12:33:04.416Z,26.43
2019-05-15T12:35:39.204Z,26.40
2019-05-15T12:38:10.051Z,25.77
2019-05-15T13:01:14.635Z,26.10
2019-05-15T13:03:40.207Z,26.73
2019-05-15T13:06:10.874Z,28.17
2019-05-15T13:08:48.692Z,28.80
2019-05-15T13:11:18.236Z,26.83
2019-05-15T13:13:50.245Z,27.37
2019-05-15T13:16:24.548Z,27.60
2019-05-15T13:18:55.393Z,30.03
2019-05-15T13:21:37.921Z,29.83
2019-05-15T13:24:09.265Z,29.97
2019-05-15T13:26:40.078Z,29.43
2019-05-15T13:29:14.418Z,28.50
2019-05-15T13:31:47.671Z,27.07
2019-05-15T13:34:23.500Z,26.60
2019-05-15T13:36:54.423Z,27.07
2019-05-15T13:39:28.378Z,24.67
2019-05-15T13:42:01.629Z,22.97
2019-05-15T13:44:34.742Z,23.23
2019-05-15T13:47:24.657Z,23.90
2019-05-15T13:50:02.754Z,24.13
2019-05-15T13:52:40.443Z,21.83
2019-05-15T13:55:25.452Z,20.87
2019-05-15T13:57:53.506Z,20.70
2019-05-15T14:00:28.947Z,19.83
2019-05-15T14:03:03.878Z,20.13
2019-05-15T14:05:40.512Z,20.53
2019-05-15T14:08:14.915Z,19.77
2019-05-15T14:10:48.924Z,19.43
2019-05-15T14:13:23.266Z,18.93
2019-05-15T14:15:58.234Z,20.63
2019-05-15T14:18:32.542Z,20.87
2019-05-15T14:21:06.024Z,19.90
2019-05-15T14:23:42.095Z,18.90
2019-05-15T14:26:20.213Z,19.17
2019-05-15T14:28:53.682Z,19.13
2019-05-15T14:31:27.897Z,18.83
2019-05-15T14:34:01.097Z,18.60
2019-05-15T14:36:38.125Z,18.10
2019-05-15T14:39:09.849Z,17.87
2019-05-15T14:41:44.898Z,19.83
2019-05-15T14:44:20.767Z,19.70
2019-05-15T14:46:51.055Z,19.77
2019-05-15T14:49:34.250Z,20.43
2019-05-15T14:52:08.213Z,22.10
2019-05-15T14:54:38.421Z,20.87
2019-05-15T14:57:10.973Z,20.63
2019-05-15T14:59:48.684Z,21.73
2019-05-15T15:02:20.701Z,20.67
2019-05-15T15:04:54.457Z,20.87
2019-05-15T15:07:28.694Z,22.33
2019-05-15T15:10:03.291Z,21.63
2019-05-15T15:12:39.734Z,22.00
2019-05-15T15:15:22.976Z,24.03
2019-05-15T15:18:01.591Z,23.23
2019-05-15T15:20:37.959Z,23.87
2019-05-15T15:23:13.348Z,24.20
2019-05-15T15:25:58.932Z,26.33
2019-05-15T15:28:31.013Z,27.57
2019-05-15T15:31:08.381Z,28.77
2019-05-15T15:33:42.647Z,28.53
2019-05-15T15:36:14.812Z,29.37
2019-05-15T15:38:50.906Z,30.87
2019-05-15T15:41:23.116Z,31.40
2019-05-15T15:43:58.678Z,30.50
2019-05-15T15:46:39.854Z,31.70
2019-05-15T15:49:11.336Z,32.73
2019-05-15T15:51:48.616Z,34.30
2019-05-15T15:54:24.845Z,34.23
2019-05-15T15:56:55.873Z,36.70
2019-05-15T15:59:28.941Z,37.87
2019-05-15T16:02:03.562Z,37.13
2019-05-15T16:04:40.856Z,37.73
2019-05-15T16:07:12.032Z,39.60
2019-05-15T16:09:44.028Z,41.23
2019-05-15T16:12:19.526Z,40.63
2019-05-15T16:14:50.382Z,37.70
2019-05-15T16:17:31.183Z,38.70
2019-05-15T16:20:02.507Z,39.20
2019-05-15T16:22:38.120Z,40.23
2019-05-15T16:25:14.877Z,39.33
2019-05-15T16:27:48.812Z,39.20
2019-05-15T16:30:21.115Z,38.03
2019-05-15T16:33:02.767Z,39.47
2019-05-15T16:35:34.807Z,39.40
2019-05-15T16:38:14.213Z,40.60
2019-05-15T16:40:54.513Z,40.13
2019-05-15T16:43:25.358Z,40.40
2019-05-15T16:46:01.514Z,41.20
2019-05-15T16:48:32.324Z,41.57
2019-05-15T16:51:09.154Z,38.77
2019-05-15T16:53:43.494Z,39.20
2019-05-15T16:56:19.004Z,41.17
2019-05-15T16:58:53.678Z,38.80
2019-05-15T17:01:28.999Z,39.07
2019-05-15T17:04:04.633Z,40.33
2019-05-15T17:06:38.733Z,38.03
2019-05-15T17:09:21.097Z,37.20
2019-05-15T17:11:58.178Z,36.60
2019-05-15T17:14:38.391Z,36.73
2019-05-15T17:17:18.365Z,36.60
2019-05-15T17:19:51.712Z,37.00
2019-05-15T17:22:26.109Z,37.27
2019-05-15T17:25:01.063Z,36.03
2019-05-15T17:27:40.741Z,35.60
2019-05-15T17:30:18.261Z,33.20
2019-05-15T17:32:58.996Z,34.33
2019-05-15T17:35:32.077Z,34.63
2019-05-15T17:38:12.103Z,34.43
2019-05-15T17:40:48.445Z,33.10
2019-05-15T17:43:22.076Z,33.50
2019-05-15T17:45:52.959Z,31.57
2019-05-15T17:48:29.533Z,33.83
2019-05-15T17:51:09.153Z,32.23
2019-05-15T17:53:43.817Z,33.40
2019-05-15T17:56:19.503Z,31.20
2019-05-15T17:58:52.692Z,31.80
2019-05-15T18:01:32.370Z,31.57
2019-05-15T18:04:04.809Z,30.10
2019-05-15T18:06:39.846Z,29.03
2019-05-15T18:09:18.745Z,28.53
2019-05-15T18:11:52.533Z,28.10
2019-05-15T18:14:33.346Z,27.67
2019-05-15T18:17:08.726Z,28.47
2019-05-15T18:19:40.682Z,26.93
2019-05-15T18:22:18.093Z,26.97
2019-05-15T18:24:54.882Z,28.13
2019-05-15T18:27:28.203Z,28.43
2019-05-15T18:30:02.712Z,28.53
2019-05-15T18:32:42.181Z,29.37
2019-05-15T18:35:15.522Z,29.43
2019-05-15T18:37:51.942Z,27.43
2019-05-15T18:40:30.562Z,29.10
2019-05-15T18:43:18.132Z,27.73
2019-05-15T18:45:51.793Z,26.93
2019-05-15T18:48:25.983Z,28.90
2019-05-15T18:50:58.759Z,29.07
2019-05-15T18:53:33.492Z,28.63
2019-05-15T18:56:08.896Z,29.60
2019-05-15T18:58:43.691Z,29.20
2019-05-15T19:01:22.148Z,29.53
2019-05-15T19:03:54.081Z,29.17
2019-05-15T19:06:31.567Z,30.90
2019-05-15T19:09:08.035Z,31.13
2019-05-15T19:11:38.616Z,30.93
2019-05-15T19:14:18.732Z,27.83
2019-05-15T19:16:52.176Z,29.80
2019-05-15T19:19:30.082Z,28.17
2019-05-15T19:22:10.856Z,29.17
2019-05-15T19:24:46.590Z,28.27
2019-05-15T19:27:24.148Z,28.80
2019-05-15T19:29:55.011Z,27.87
2019-05-15T19:32:40.302Z,29.57
2019-05-15T19:35:15.464Z,27.20
2019-05-15T19:37:49.853Z,27.30
2019-05-15T19:40:22.074Z,28.93
2019-05-15T19:42:53.948Z,28.60
2019-05-15T19:45:28.197Z,29.70
2019-05-15T19:48:02.026Z,29.70
2019-05-15T19:50:36.333Z,27.67
2019-05-15T19:53:12.255Z,27.47
2019-05-15T19:55:48.344Z,27.70
2019-05-15T19:58:23.584Z,28.37
2019-05-15T20:00:57.325Z,27.17
2019-05-15T20:03:28.468Z,30.03
2019-05-15T20:06:01.620Z,27.87
2019-05-15T20:08:33.115Z,29.70
2019-05-15T20:11:05.038Z,31.67
2019-05-15T20:13:38.509Z,28.57
2019-05-15T20:16:11.729Z,30.40
2019-05-15T20:18:42.517Z,30.60
2019-05-15T20:21:18.198Z,30.20
2019-05-15T20:23:58.834Z,29.67
2019-05-15T20:26:32.796Z,29.77
2019-05-15T20:29:04.803Z,31.73
2019-05-15T20:31:40.346Z,30.47
2019-05-15T20:34:14.313Z,29.97
2019-05-15T20:36:52.704Z,30.07
2019-05-15T20:39:23.641Z,23.47
2019-05-15T20:41:58.276Z,21.97
2019-05-15T20:44:33.083Z,21.93
2019-05-15T20:47:10.388Z,19.90
2019-05-15T20:49:42.872Z,19.00
2019-05-15T20:52:13.805Z,15.50
2019-05-15T20:54:47.901Z,15.73
2019-05-15T20:57:18.273Z,15.77
2019-05-15T20:59:48.957Z,13.63
2019-05-15T21:02:19.681Z,14.20
2019-05-15T21:04:52.589Z,14.40
2019-05-15T21:07:34.969Z,12.83
2019-05-15T21:09:55.944Z,12.83
2019-05-15T21:12:29.878Z,13.50
2019-05-15T21:15:00.886Z,13.53
2019-05-15T21:17:31.547Z,13.37
2019-05-15T21:20:02.159Z,15.33
2019-05-15T21:22:32.846Z,16.20
2019-05-15T21:25:03.487Z,16.47
2019-05-15T21:27:34.136Z,15.00
2019-05-15T21:30:05.456Z,14.70
2019-05-15T21:32:38.159Z,14.77
2019-05-15T21:35:09.209Z,13.43
2019-05-15T21:37:40.148Z,17.13
2019-05-15T21:40:11.314Z,18.40
2019-05-15T21:42:42.004Z,21.20
2019-05-15T21:45:14.703Z,21.53
2019-05-15T21:47:45.067Z,19.30
2019-05-15T21:50:19.345Z,17.80
2019-05-15T21:52:49.667Z,18.07
2019-05-15T21:55:20.517Z,17.53
2019-05-15T21:57:51.462Z,18.57
2019-05-15T22:00:31.778Z,17.53
2019-05-15T22:03:02.424Z,17.70
2019-05-15T22:05:33.301Z,14.70
2019-05-15T22:08:04.012Z,13.73
2019-05-15T22:10:34.783Z,13.53
2019-05-15T22:13:06.626Z,12.53
2019-05-15T22:15:37.278Z,13.40
2019-05-15T22:18:08.661Z,14.00
2019-05-15T22:20:40.386Z,15.03
2019-05-15T22:23:11.058Z,14.70
2019-05-15T22:25:42.047Z,15.63
2019-05-15T22:28:12.626Z,17.73
2019-05-15T22:30:43.260Z,18.07
2019-05-15T22:33:13.873Z,18.87
2019-05-15T22:35:44.516Z,19.00
2019-05-15T22:38:15.196Z,17.90
2019-05-15T22:40:48.421Z,17.33
2019-05-15T22:43:18.665Z,18.47
2019-05-15T22:45:49.373Z,16.83
2019-05-15T22:48:19.978Z,17.93
2019-05-15T22:50:50.666Z,19.47
2019-05-15T22:53:21.179Z,18.67
2019-05-15T22:55:52.078Z,17.50
2019-05-15T22:58:22.882Z,19.10
2019-05-15T23:00:53.534Z,17.00
2019-05-15T23:03:24.049Z,17.57
2019-05-15T23:05:54.563Z,16.97
2019-05-15T23:08:25.054Z,14.97
2019-05-15T23:10:58.550Z,14.93
2019-05-15T23:13:28.700Z,15.40
2019-05-15T23:15:59.326Z,13.63
2019-05-15T23:18:30.026Z,14.30
2019-05-15T23:21:00.668Z,13.50
2019-05-15T23:23:31.214Z,13.67
2019-05-15T23:26:01.858Z,13.67
2019-05-15T23:28:32.563Z,13.73
2019-05-15T23:31:03.316Z,14.33
2019-05-15T23:33:33.931Z,13.83
2019-05-15T23:36:04.568Z,13.03
2019-05-15T23:38:35.196Z,14.60
2019-05-15T23:41:08.087Z,14.07
2019-05-15T23:43:38.951Z,12.97
2019-05-15T23:46:09.642Z,13.93
2019-05-15T23:48:40.222Z,13.67
2019-05-15T23:51:10.852Z,14.60
2019-05-15T23:53:41.435Z,14.83
2019-05-15T23:56:12.122Z,13.77
2019-05-15T23:58:42.675Z,15.27
